createdAt,value
2019-05-26T00:00:03.698Z,49.14
2019-05-26T00:02:32.883Z,49.23
2019-05-26T00:05:01.947Z,49.23
2019-05-26T00:07:31.325Z,49.28
2019-05-26T00:10:00.611Z,49.41
2019-05-26T00:12:33.079Z,49.60
2019-05-26T00:15:02.419Z,49.74
2019-05-26T00:17:31.794Z,49.82
2019-05-26T00:20:01.076Z,49.82
2019-05-26T00:22:33.177Z,49.93
2019-05-26T00:25:02.382Z,49.90
2019-05-26T00:27:34.568Z,49.89
2019-05-26T00:30:03.874Z,50.00
2019-05-26T00:32:34.297Z,50.08
2019-05-26T00:35:03.735Z,50.23
2019-05-26T00:37:47.766Z,50.29
2019-05-26T00:40:04.980Z,50.38
2019-05-26T00:42:36.354Z,50.44
2019-05-26T00:45:06.089Z,50.42
2019-05-26T00:47:35.671Z,50.50
2019-05-26T00:50:06.096Z,50.58
2019-05-26T00:52:37.410Z,50.65
2019-05-26T00:55:06.948Z,50.80
2019-05-26T00:57:36.428Z,50.95
2019-05-26T01:00:06.452Z,51.00
2019-05-26T01:02:38.400Z,51.02
2019-05-26T01:05:07.828Z,51.08
2019-05-26T01:07:37.339Z,51.06
2019-05-26T01:10:07.266Z,51.20
2019-05-26T01:12:36.697Z,51.14
2019-05-26T01:15:06.208Z,51.21
2019-05-26T01:17:37.366Z,51.29
2019-05-26T01:20:06.648Z,51.43
2019-05-26T01:22:35.839Z,51.42
2019-05-26T01:25:05.604Z,51.56
2019-05-26T01:27:36.655Z,51.61
2019-05-26T01:30:08.008Z,51.71
2019-05-26T01:32:40.000Z,51.66
2019-05-26T01:35:09.646Z,51.68
2019-05-26T01:37:39.016Z,51.76
2019-05-26T01:40:10.039Z,51.84
2019-05-26T01:42:39.255Z,51.86
2019-05-26T01:45:08.420Z,51.86
2019-05-26T01:47:37.547Z,51.88
2019-05-26T01:50:06.648Z,51.75
2019-05-26T01:52:36.837Z,51.89
2019-05-26T01:55:06.123Z,51.93
2019-05-26T01:57:37.649Z,51.95
2019-05-26T02:00:08.050Z,51.96
2019-05-26T02:02:37.244Z,51.99
2019-05-26T02:05:07.422Z,52.01
2019-05-26T02:07:36.587Z,52.05
2019-05-26T02:10:06.231Z,52.10
2019-05-26T02:12:35.480Z,52.03
2019-05-26T02:15:04.623Z,51.92
2019-05-26T02:17:33.681Z,51.91
2019-05-26T02:20:02.704Z,51.84
2019-05-26T02:22:31.772Z,51.75
2019-05-26T02:25:06.133Z,51.83
2019-05-26T02:27:35.245Z,51.67
2019-05-26T02:30:04.505Z,51.52
2019-05-26T02:32:33.587Z,51.44
2019-05-26T02:35:02.747Z,51.24
2019-05-26T02:37:31.830Z,51.28
2019-05-26T02:40:04.685Z,51.24
2019-05-26T02:42:33.850Z,51.29
2019-05-26T02:45:02.930Z,51.24
2019-05-26T02:47:31.945Z,51.14
2019-05-26T02:50:03.032Z,51.18
2019-05-26T02:52:32.209Z,51.17
2019-05-26T02:55:04.227Z,51.23
2019-05-26T02:57:33.432Z,51.09
2019-05-26T03:00:02.787Z,51.11
2019-05-26T03:02:31.883Z,51.19
2019-05-26T03:05:01.054Z,51.14
2019-05-26T03:07:30.213Z,51.26
2019-05-26T03:10:01.646Z,51.27
2019-05-26T03:12:31.928Z,51.38
2019-05-26T03:15:03.351Z,51.58
2019-05-26T03:17:34.975Z,51.71
2019-05-26T03:20:04.561Z,51.79
2019-05-26T03:22:33.673Z,51.88
2019-05-26T03:25:02.745Z,51.88
2019-05-26T03:27:31.815Z,52.06
2019-05-26T03:30:01.011Z,52.27
2019-05-26T03:32:32.785Z,52.39
2019-05-26T03:35:01.984Z,52.59
2019-05-26T03:37:33.098Z,52.63
2019-05-26T03:40:04.372Z,52.58
2019-05-26T03:42:33.880Z,52.53
2019-05-26T03:45:04.422Z,52.47
2019-05-26T03:47:33.703Z,52.39
2019-05-26T03:50:06.358Z,52.43
2019-05-26T03:52:35.801Z,52.53
2019-05-26T03:55:05.419Z,52.55
2019-05-26T03:57:34.487Z,52.57
2019-05-26T04:00:05.943Z,52.54
2019-05-26T04:02:35.467Z,52.63
2019-05-26T04:05:05.496Z,52.73
2019-05-26T04:07:34.845Z,52.73
2019-05-26T04:10:06.924Z,52.76
2019-05-26T04:12:39.316Z,52.77
2019-05-26T04:15:08.811Z,52.78
2019-05-26T04:17:37.854Z,52.82
2019-05-26T04:20:09.834Z,52.83
2019-05-26T04:22:38.907Z,52.77
2019-05-26T04:25:07.975Z,52.82
2019-05-26T04:27:37.226Z,52.81
2019-05-26T04:30:06.819Z,52.74
2019-05-26T04:32:35.876Z,52.72
2019-05-26T04:35:05.985Z,52.73
2019-05-26T04:37:37.859Z,52.75
2019-05-26T04:40:24.781Z,52.72
2019-05-26T04:42:37.805Z,52.76
2019-05-26T04:45:08.610Z,52.69
2019-05-26T04:47:37.686Z,52.65
2019-05-26T04:50:06.852Z,52.66
2019-05-26T04:52:35.900Z,52.63
2019-05-26T04:55:10.131Z,52.57
2019-05-26T04:57:39.132Z,52.26
2019-05-26T05:00:08.257Z,52.26
2019-05-26T05:02:37.325Z,52.13
2019-05-26T05:05:07.452Z,51.86
2019-05-26T05:07:39.221Z,51.57
2019-05-26T05:10:08.293Z,51.43
2019-05-26T05:12:37.407Z,51.27
2019-05-26T05:15:06.650Z,51.01
2019-05-26T05:17:35.843Z,50.90
2019-05-26T05:20:05.026Z,50.75
2019-05-26T05:22:34.103Z,50.55
2019-05-26T05:25:09.861Z,50.34
2019-05-26T05:27:33.954Z,50.28
2019-05-26T05:30:03.001Z,50.11
2019-05-26T05:32:32.963Z,49.93
2019-05-26T05:35:02.240Z,49.77
2019-05-26T05:37:31.279Z,49.41
2019-05-26T05:40:00.588Z,49.03
2019-05-26T05:42:29.767Z,48.49
2019-05-26T05:44:58.815Z,48.24
2019-05-26T05:47:28.974Z,48.15
2019-05-26T05:50:00.214Z,47.54
2019-05-26T05:52:32.249Z,47.05
2019-05-26T05:55:01.363Z,46.90
2019-05-26T05:57:30.685Z,46.82
2019-05-26T06:00:01.978Z,46.98
2019-05-26T06:02:34.198Z,46.62
2019-05-26T06:05:05.592Z,46.17
2019-05-26T06:07:36.038Z,46.23
2019-05-26T06:10:09.406Z,45.82
2019-05-26T06:12:38.835Z,45.83
2019-05-26T06:15:09.998Z,45.53
2019-05-26T06:17:39.297Z,45.26
2019-05-26T06:20:08.792Z,45.32
2019-05-26T06:22:38.125Z,45.79
2019-05-26T06:25:07.670Z,45.09
2019-05-26T06:27:37.132Z,44.72
2019-05-26T06:30:06.659Z,43.59
2019-05-26T06:32:37.704Z,44.00
2019-05-26T06:35:07.314Z,42.75
2019-05-26T06:37:36.609Z,41.62
2019-05-26T06:40:07.993Z,40.85
2019-05-26T06:42:38.176Z,40.46
2019-05-26T06:45:08.113Z,39.20
2019-05-26T06:47:38.596Z,38.30
2019-05-26T06:50:09.601Z,38.07
2019-05-26T06:52:41.677Z,36.65
2019-05-26T06:55:11.165Z,35.94
2019-05-26T06:57:40.630Z,34.73
2019-05-26T07:00:10.510Z,34.51
2019-05-26T07:02:39.924Z,34.12
2019-05-26T07:05:09.211Z,33.86
2019-05-26T07:07:38.572Z,33.78
2019-05-26T07:10:08.650Z,32.18
2019-05-26T07:12:38.095Z,32.46
2019-05-26T07:15:10.608Z,32.47
2019-05-26T07:17:39.676Z,30.78
2019-05-26T07:20:08.855Z,30.64
2019-05-26T07:22:38.324Z,29.76
2019-05-26T07:25:07.509Z,28.40
2019-05-26T07:27:37.114Z,29.09
2019-05-26T07:30:07.670Z,28.64
2019-05-26T07:32:40.048Z,28.70
2019-05-26T07:35:09.803Z,27.84
2019-05-26T07:37:41.167Z,27.71
2019-05-26T07:40:10.642Z,27.54
2019-05-26T07:42:39.942Z,27.29
2019-05-26T07:45:09.329Z,27.27
2019-05-26T07:47:38.673Z,26.77
2019-05-26T07:50:08.194Z,27.04
2019-05-26T07:52:37.690Z,26.26
2019-05-26T07:55:07.536Z,25.37
2019-05-26T07:57:38.267Z,25.67
2019-05-26T08:00:07.893Z,25.54
2019-05-26T08:02:43.689Z,25.21
2019-05-26T08:05:13.528Z,24.60
2019-05-26T08:07:42.747Z,24.42
2019-05-26T08:10:11.906Z,23.81
2019-05-26T08:12:41.486Z,23.40
2019-05-26T08:15:10.997Z,23.06
2019-05-26T08:17:40.316Z,22.68
2019-05-26T08:20:09.695Z,22.56
2019-05-26T08:22:39.054Z,21.13
2019-05-26T08:25:10.600Z,21.53
2019-05-26T08:27:40.133Z,21.68
2019-05-26T08:30:17.195Z,22.26
2019-05-26T08:32:46.700Z,21.75
2019-05-26T08:35:20.264Z,20.54
2019-05-26T08:37:49.976Z,20.74
2019-05-26T08:40:19.770Z,20.62
2019-05-26T08:42:49.523Z,20.11
2019-05-26T08:45:21.871Z,19.93
2019-05-26T08:47:51.172Z,19.82
2019-05-26T08:50:20.671Z,19.58
2019-05-26T08:52:50.595Z,18.84
2019-05-26T08:55:20.262Z,18.51
2019-05-26T08:57:51.951Z,18.28
2019-05-26T09:00:21.462Z,17.60
2019-05-26T09:02:51.093Z,17.80
2019-05-26T09:05:21.767Z,17.90
2019-05-26T09:07:50.785Z,17.15
2019-05-26T09:10:22.926Z,16.05
2019-05-26T09:13:00.782Z,16.16
2019-05-26T09:15:22.251Z,16.15
2019-05-26T09:17:51.298Z,16.57
2019-05-26T09:20:22.332Z,17.03
2019-05-26T09:23:00.981Z,16.45
2019-05-26T09:25:56.762Z,16.55
2019-05-26T09:28:49.662Z,17.34
2019-05-26T09:31:28.554Z,18.16
2019-05-26T09:34:03.001Z,18.73
2019-05-26T09:36:32.333Z,19.47
2019-05-26T09:39:05.690Z,20.24
2019-05-26T09:41:39.107Z,20.87
2019-05-26T09:44:09.825Z,21.42
2019-05-26T09:46:38.922Z,21.88
2019-05-26T09:49:07.968Z,22.31
2019-05-26T09:51:37.046Z,22.80
2019-05-26T09:54:06.237Z,23.39
2019-05-26T09:56:36.448Z,23.64
2019-05-26T09:59:08.858Z,24.49
2019-05-26T10:01:41.351Z,24.86
2019-05-26T10:04:10.786Z,25.37
2019-05-26T10:06:40.211Z,25.68
2019-05-26T10:09:12.495Z,26.08
2019-05-26T10:11:45.257Z,26.49
2019-05-26T10:14:15.315Z,26.84
2019-05-26T10:16:44.538Z,27.16
2019-05-26T10:19:13.726Z,27.57
2019-05-26T10:21:43.065Z,27.82
2019-05-26T10:24:12.646Z,28.15
2019-05-26T10:26:46.145Z,28.41
2019-05-26T10:29:17.767Z,28.58
2019-05-26T10:31:46.933Z,28.52
2019-05-26T10:34:15.969Z,28.96
2019-05-26T10:36:45.068Z,28.90
2019-05-26T10:39:14.092Z,29.24
2019-05-26T10:41:43.229Z,29.35
2019-05-26T10:44:12.286Z,29.24
2019-05-26T10:46:41.291Z,29.17
2019-05-26T10:49:10.349Z,28.86
2019-05-26T10:51:39.409Z,29.19
2019-05-26T10:54:08.467Z,29.33
2019-05-26T10:56:37.526Z,29.49
2019-05-26T10:59:06.625Z,29.63
2019-05-26T11:01:35.693Z,29.40
2019-05-26T11:04:04.827Z,29.21
2019-05-26T11:06:33.852Z,29.13
2019-05-26T11:09:02.848Z,29.61
2019-05-26T11:11:31.869Z,29.80
2019-05-26T11:14:03.220Z,29.62
2019-05-26T11:16:31.638Z,29.58
2019-05-26T11:19:00.693Z,29.45
2019-05-26T11:21:29.741Z,29.18
2019-05-26T11:23:58.840Z,29.71
2019-05-26T11:26:27.851Z,28.68
2019-05-26T11:28:56.848Z,28.70
2019-05-26T11:31:28.641Z,28.91
2019-05-26T11:33:57.719Z,28.99
2019-05-26T11:36:26.833Z,29.17
2019-05-26T11:38:55.925Z,29.05
2019-05-26T11:41:24.973Z,29.29
2019-05-26T11:43:54.082Z,29.63
2019-05-26T11:46:23.140Z,29.76
2019-05-26T11:48:52.211Z,29.62
2019-05-26T11:51:21.377Z,29.98
2019-05-26T11:53:50.432Z,30.10
2019-05-26T11:56:19.503Z,29.31
2019-05-26T11:58:48.473Z,29.31
2019-05-26T12:01:17.494Z,29.88
2019-05-26T12:03:46.516Z,30.14
2019-05-26T12:06:15.983Z,30.14
2019-05-26T12:08:45.335Z,30.03
2019-05-26T12:11:14.392Z,30.35
2019-05-26T12:13:43.489Z,30.35
2019-05-26T12:16:12.858Z,30.12
2019-05-26T12:18:41.877Z,30.00
2019-05-26T12:21:11.800Z,29.93
2019-05-26T12:23:41.025Z,29.77
2019-05-26T12:26:10.061Z,29.79
2019-05-26T12:28:39.069Z,29.85
2019-05-26T12:31:08.205Z,29.89
2019-05-26T12:33:37.302Z,29.55
2019-05-26T12:36:06.425Z,29.79
2019-05-26T12:38:38.717Z,30.09
2019-05-26T12:41:07.807Z,29.42
2019-05-26T12:43:36.837Z,29.34
2019-05-26T12:46:06.341Z,29.35
2019-05-26T12:48:35.386Z,29.33
2019-05-26T12:51:04.934Z,29.35
2019-05-26T12:53:33.884Z,29.48
2019-05-26T12:56:03.059Z,29.80
2019-05-26T12:58:32.202Z,29.98
2019-05-26T13:01:01.325Z,30.53
2019-05-26T13:03:30.399Z,30.53
2019-05-26T13:05:59.532Z,30.71
2019-05-26T13:08:28.562Z,30.77
2019-05-26T13:10:57.622Z,30.72
2019-05-26T13:13:26.642Z,30.55
2019-05-26T13:15:55.714Z,30.39
2019-05-26T13:18:24.736Z,30.46
2019-05-26T13:20:53.802Z,30.33
2019-05-26T13:23:22.879Z,30.42
2019-05-26T13:25:51.961Z,29.94
2019-05-26T13:28:20.971Z,29.73
2019-05-26T13:30:50.006Z,29.64
2019-05-26T13:33:18.935Z,29.43
2019-05-26T13:35:47.958Z,29.57
2019-05-26T13:38:17.109Z,29.63
2019-05-26T13:40:46.165Z,29.85
2019-05-26T13:43:15.228Z,29.95
2019-05-26T13:45:44.308Z,29.81
2019-05-26T13:48:13.365Z,29.67
2019-05-26T13:50:42.307Z,29.65
2019-05-26T13:53:11.348Z,29.53
2019-05-26T13:55:40.487Z,29.37
2019-05-26T13:58:09.562Z,29.32
2019-05-26T14:00:38.601Z,29.28
2019-05-26T14:03:07.709Z,29.32
2019-05-26T14:05:36.802Z,29.26
2019-05-26T14:08:06.319Z,29.23
2019-05-26T14:10:36.448Z,29.50
2019-05-26T14:13:05.896Z,29.37
2019-05-26T14:15:38.550Z,28.91
2019-05-26T14:18:37.155Z,29.20
2019-05-26T14:21:06.276Z,29.02
2019-05-26T14:23:36.600Z,29.13
2019-05-26T14:26:05.715Z,29.24
2019-05-26T14:28:34.897Z,29.14
2019-05-26T14:31:04.030Z,29.48
2019-05-26T14:33:33.901Z,29.86
2019-05-26T14:36:03.025Z,29.75
2019-05-26T14:38:42.762Z,29.93
2019-05-26T14:41:03.745Z,29.98
2019-05-26T14:43:33.139Z,30.13
2019-05-26T14:46:02.631Z,30.45
2019-05-26T14:48:32.050Z,30.68
2019-05-26T14:51:02.239Z,31.23
2019-05-26T14:53:34.681Z,31.65
2019-05-26T14:56:05.769Z,32.24
2019-05-26T14:58:34.860Z,33.14
2019-05-26T15:01:03.943Z,33.06
2019-05-26T15:03:33.121Z,33.06
2019-05-26T15:06:07.101Z,33.53
2019-05-26T15:08:36.459Z,33.55
2019-05-26T15:11:06.027Z,33.69
2019-05-26T15:13:35.779Z,33.51
2019-05-26T15:16:11.754Z,33.55
2019-05-26T15:18:43.631Z,33.50
2019-05-26T15:21:19.143Z,33.68
2019-05-26T15:23:51.215Z,33.77
2019-05-26T15:26:20.717Z,34.07
2019-05-26T15:28:50.026Z,34.24
2019-05-26T15:31:20.342Z,34.51
2019-05-26T15:33:53.057Z,34.71
2019-05-26T15:36:24.217Z,34.97
2019-05-26T15:38:54.066Z,35.07
2019-05-26T15:41:25.810Z,35.09
2019-05-26T15:43:55.204Z,35.20
2019-05-26T15:46:28.029Z,35.34
2019-05-26T15:48:57.345Z,35.36
2019-05-26T15:51:26.956Z,35.58
2019-05-26T15:53:56.172Z,35.66
2019-05-26T15:56:25.700Z,35.87
2019-05-26T15:58:54.841Z,35.99
2019-05-26T16:01:23.955Z,36.19
2019-05-26T16:03:52.985Z,36.35
2019-05-26T16:06:22.087Z,36.46
2019-05-26T16:08:51.166Z,36.51
2019-05-26T16:11:20.361Z,36.57
2019-05-26T16:13:49.656Z,36.68
2019-05-26T16:16:18.844Z,36.69
2019-05-26T16:18:48.826Z,36.70
2019-05-26T16:21:27.703Z,36.83
2019-05-26T16:23:48.655Z,36.92
2019-05-26T16:26:17.878Z,37.00
2019-05-26T16:28:46.943Z,37.18
2019-05-26T16:31:16.031Z,37.25
2019-05-26T16:33:45.280Z,37.27
2019-05-26T16:36:14.488Z,37.34
2019-05-26T16:38:43.558Z,37.33
2019-05-26T16:41:12.670Z,37.47
2019-05-26T16:43:41.755Z,37.41
2019-05-26T16:46:11.071Z,37.36
2019-05-26T16:48:40.221Z,37.45
2019-05-26T16:51:10.498Z,37.56
2019-05-26T16:53:40.509Z,37.59
2019-05-26T16:56:09.962Z,37.51
2019-05-26T16:58:39.234Z,37.61
2019-05-26T17:01:11.046Z,37.75
2019-05-26T17:03:43.644Z,37.78
2019-05-26T17:06:15.166Z,37.77
2019-05-26T17:08:44.974Z,37.80
2019-05-26T17:11:17.602Z,37.83
2019-05-26T17:13:46.924Z,37.71
2019-05-26T17:16:16.412Z,37.65
2019-05-26T17:18:46.459Z,37.53
2019-05-26T17:21:27.668Z,37.51
2019-05-26T17:24:03.955Z,37.62
2019-05-26T17:26:41.862Z,37.65
2019-05-26T17:29:18.535Z,37.76
2019-05-26T17:31:58.819Z,37.75
2019-05-26T17:34:32.531Z,37.86
2019-05-26T17:37:03.833Z,38.05
2019-05-26T17:39:33.097Z,38.47
2019-05-26T17:42:07.217Z,38.64
2019-05-26T17:44:36.998Z,38.88
2019-05-26T17:47:11.034Z,38.89
2019-05-26T17:49:41.954Z,38.88
2019-05-26T17:52:11.906Z,39.10
2019-05-26T17:54:44.693Z,38.99
2019-05-26T17:57:14.703Z,39.06
2019-05-26T17:59:44.302Z,39.02
2019-05-26T18:02:15.295Z,39.02
2019-05-26T18:04:44.767Z,39.05
2019-05-26T18:07:14.719Z,39.04
2019-05-26T18:09:46.292Z,39.13
2019-05-26T18:12:15.751Z,39.20
2019-05-26T18:14:45.881Z,39.18
2019-05-26T18:17:15.226Z,39.20
2019-05-26T18:19:44.334Z,39.16
2019-05-26T18:22:13.773Z,39.27
2019-05-26T18:24:54.498Z,39.23
2019-05-26T18:27:15.636Z,39.27
2019-05-26T18:29:44.938Z,39.31
2019-05-26T18:32:18.588Z,39.36
2019-05-26T18:34:51.783Z,39.41
2019-05-26T18:37:21.065Z,39.55
2019-05-26T18:39:50.358Z,39.68
2019-05-26T18:42:22.172Z,39.72
2019-05-26T18:44:52.337Z,39.89
2019-05-26T18:47:24.118Z,39.99
2019-05-26T18:49:53.798Z,40.10
2019-05-26T18:52:23.766Z,40.27
2019-05-26T18:54:53.650Z,40.49
2019-05-26T18:57:33.743Z,40.45
2019-05-26T19:00:12.897Z,40.58
2019-05-26T19:02:42.836Z,40.69
2019-05-26T19:05:12.217Z,40.95
2019-05-26T19:07:41.739Z,41.08
2019-05-26T19:10:16.873Z,41.20
2019-05-26T19:12:47.302Z,41.41
2019-05-26T19:15:17.691Z,41.47
2019-05-26T19:17:46.951Z,41.65
2019-05-26T19:20:18.614Z,41.76
2019-05-26T19:22:47.755Z,42.00
2019-05-26T19:25:16.868Z,42.19
2019-05-26T19:27:48.985Z,42.34
2019-05-26T19:30:18.682Z,42.51
2019-05-26T19:32:48.190Z,42.63
2019-05-26T19:35:17.480Z,42.67
2019-05-26T19:37:46.853Z,42.84
2019-05-26T19:40:16.417Z,42.98
2019-05-26T19:42:46.135Z,43.04
2019-05-26T19:45:16.348Z,43.18
2019-05-26T19:47:45.890Z,43.21
2019-05-26T19:50:15.733Z,43.32
2019-05-26T19:52:44.977Z,43.36
2019-05-26T19:55:14.334Z,43.44
2019-05-26T19:57:45.675Z,43.42
2019-05-26T20:00:17.516Z,43.44
2019-05-26T20:02:46.801Z,43.43
2019-05-26T20:05:18.044Z,43.45
2019-05-26T20:08:11.317Z,43.43
2019-05-26T20:10:55.542Z,43.28
2019-05-26T20:13:53.976Z,43.04
2019-05-26T20:16:54.450Z,43.00
2019-05-26T20:23:03.689Z,42.91
2019-05-26T20:25:59.373Z,42.85
2019-05-26T20:28:55.074Z,42.78
2019-05-26T20:31:41.986Z,42.79
2019-05-26T20:34:20.399Z,42.82
2019-05-26T20:37:02.256Z,42.83
2019-05-26T20:40:02.195Z,42.87
2019-05-26T20:42:45.972Z,42.74
2019-05-26T20:45:15.252Z,42.52
2019-05-26T20:47:47.201Z,42.20
2019-05-26T20:50:32.600Z,42.14
2019-05-26T20:53:27.404Z,42.17
2019-05-26T20:55:56.574Z,41.89
2019-05-26T20:58:27.475Z,41.93
2019-05-26T21:01:02.658Z,41.74
2019-05-26T21:03:36.957Z,41.77
2019-05-26T21:06:07.874Z,41.72
2019-05-26T21:08:39.437Z,41.74
2019-05-26T21:11:11.078Z,41.76
2019-05-26T21:13:41.854Z,41.73
2019-05-26T21:16:18.859Z,41.78
2019-05-26T21:19:05.174Z,41.87
2019-05-26T21:21:43.580Z,41.87
2019-05-26T21:24:22.198Z,42.06
2019-05-26T21:27:30.789Z,42.23
2019-05-26T21:30:22.454Z,42.56
2019-05-26T21:33:21.127Z,42.94
2019-05-26T21:36:09.707Z,43.26
2019-05-26T21:38:58.630Z,43.68
2019-05-26T21:41:48.922Z,44.31
2019-05-26T21:44:38.105Z,44.75
2019-05-26T21:47:25.058Z,45.02
2019-05-26T21:50:04.643Z,45.25
2019-05-26T21:53:12.979Z,45.56
2019-05-26T21:55:42.061Z,45.61
2019-05-26T21:58:22.298Z,45.97
2019-05-26T22:01:22.351Z,46.01
2019-05-26T22:03:51.541Z,46.24
2019-05-26T22:06:35.186Z,46.47
2019-05-26T22:09:06.448Z,46.59
2019-05-26T22:11:35.498Z,46.83
2019-05-26T22:14:04.550Z,47.05
2019-05-26T22:19:04.291Z,47.76
2019-05-26T22:21:33.438Z,47.80
2019-05-26T22:24:02.588Z,48.03
2019-05-26T22:26:31.658Z,48.33
2019-05-26T22:29:00.697Z,48.50
2019-05-26T22:31:29.681Z,48.63
2019-05-26T22:33:58.717Z,48.72
2019-05-26T22:36:27.859Z,49.05
2019-05-26T22:38:56.952Z,49.04
2019-05-26T22:41:25.967Z,49.12
2019-05-26T22:43:55.073Z,49.34
2019-05-26T22:46:24.102Z,49.46
2019-05-26T22:48:53.231Z,49.63
2019-05-26T22:51:22.279Z,49.68
2019-05-26T22:53:51.470Z,49.71
2019-05-26T22:56:20.513Z,49.78
2019-05-26T22:58:49.613Z,49.93
2019-05-26T23:01:18.685Z,50.05
2019-05-26T23:03:47.720Z,50.34
2019-05-26T23:06:16.770Z,50.26
2019-05-26T23:08:45.819Z,50.39
2019-05-26T23:11:14.843Z,50.61
2019-05-26T23:13:44.760Z,50.60
2019-05-26T23:16:13.837Z,50.68
2019-05-26T23:18:42.889Z,50.77
2019-05-26T23:21:11.934Z,50.68
2019-05-26T23:23:43.831Z,50.62
2019-05-26T23:26:12.868Z,50.66
2019-05-26T23:28:41.970Z,50.66
2019-05-26T23:31:10.994Z,50.68
2019-05-26T23:33:40.067Z,50.71
2019-05-26T23:36:09.063Z,50.63
2019-05-26T23:38:38.146Z,50.62
2019-05-26T23:41:07.187Z,50.50
2019-05-26T23:43:36.162Z,50.58
2019-05-26T23:46:05.172Z,50.55
2019-05-26T23:48:34.170Z,50.46
2019-05-26T23:51:03.247Z,50.61
2019-05-26T23:53:32.251Z,50.54
2019-05-26T23:56:01.631Z,50.53
2019-05-26T23:58:30.705Z,50.60
